sensor_id;sensor_type;location;lat;lon;timestamp;P1;durP1;ratioP1;P2;durP2;ratioP2
72974;SDS011;61166;54.228;37.632;2022-09-20T00:01:08;5.77;;;3.33;;
72974;SDS011;61166;54.228;37.632;2022-09-20T00:03:40;5.72;;;3.30;;
72974;SDS011;61166;54.228;37.632;2022-09-20T00:06:08;4.70;;;3.33;;
72974;SDS011;61166;54.228;37.632;2022-09-20T00:08:36;4.68;;;2.42;;
72974;SDS011;61166;54.228;37.632;2022-09-20T00:11:06;3.58;;;2.30;;
72974;SDS011;61166;54.228;37.632;2022-09-20T00:13:34;6.07;;;3.17;;
72974;SDS011;61166;54.228;37.632;2022-09-20T00:16:08;6.07;;;3.10;;
72974;SDS011;61166;54.228;37.632;2022-09-20T00:18:35;6.65;;;3.65;;
72974;SDS011;61166;54.228;37.632;2022-09-20T00:21:01;6.25;;;3.33;;
72974;SDS011;61166;54.228;37.632;2022-09-20T00:23:28;5.87;;;3.17;;
72974;SDS011;61166;54.228;37.632;2022-09-20T00:25:55;8.93;;;4.07;;
72974;SDS011;61166;54.228;37.632;2022-09-20T00:28:27;6.30;;;3.47;;
72974;SDS011;61166;54.228;37.632;2022-09-20T00:30:53;7.57;;;3.65;;
72974;SDS011;61166;54.228;37.632;2022-09-20T00:33:21;5.50;;;3.40;;
72974;SDS011;61166;54.228;37.632;2022-09-20T00:35:48;5.38;;;3.17;;
72974;SDS011;61166;54.228;37.632;2022-09-20T00:38:14;5.85;;;3.60;;
72974;SDS011;61166;54.228;37.632;2022-09-20T00:40:40;6.68;;;3.00;;
72974;SDS011;61166;54.228;37.632;2022-09-20T00:43:09;5.45;;;2.72;;
72974;SDS011;61166;54.228;37.632;2022-09-20T00:45:37;6.27;;;3.00;;
72974;SDS011;61166;54.228;37.632;2022-09-20T00:50:46;6.20;;;3.50;;
72974;SDS011;61166;54.228;37.632;2022-09-20T00:55:52;8.27;;;3.90;;
72974;SDS011;61166;54.228;37.632;2022-09-20T00:58:23;6.53;;;3.58;;
72974;SDS011;61166;54.228;37.632;2022-09-20T01:00:51;6.30;;;3.45;;
72974;SDS011;61166;54.228;37.632;2022-09-20T01:03:20;5.67;;;3.33;;
72974;SDS011;61166;54.228;37.632;2022-09-20T01:05:47;5.72;;;3.20;;
72974;SDS011;61166;54.228;37.632;2022-09-20T01:08:14;5.20;;;3.03;;
72974;SDS011;61166;54.228;37.632;2022-09-20T01:10:41;4.68;;;2.70;;
72974;SDS011;61166;54.228;37.632;2022-09-20T01:13:07;5.23;;;3.43;;
72974;SDS011;61166;54.228;37.632;2022-09-20T01:15:33;5.93;;;3.30;;
72974;SDS011;61166;54.228;37.632;2022-09-20T01:18:01;5.07;;;2.95;;
72974;SDS011;61166;54.228;37.632;2022-09-20T01:20:28;5.97;;;3.10;;
72974;SDS011;61166;54.228;37.632;2022-09-20T01:25:29;4.03;;;2.60;;
72974;SDS011;61166;54.228;37.632;2022-09-20T01:28:00;5.90;;;2.90;;
72974;SDS011;61166;54.228;37.632;2022-09-20T01:30:30;5.03;;;2.50;;
72974;SDS011;61166;54.228;37.632;2022-09-20T01:33:24;5.43;;;2.63;;
72974;SDS011;61166;54.228;37.632;2022-09-20T01:35:57;5.10;;;2.78;;
72974;SDS011;61166;54.228;37.632;2022-09-20T01:41:05;3.95;;;2.60;;
72974;SDS011;61166;54.228;37.632;2022-09-20T01:46:41;6.67;;;2.73;;
72974;SDS011;61166;54.228;37.632;2022-09-20T02:00:17;5.27;;;2.53;;
72974;SDS011;61166;54.228;37.632;2022-09-20T02:11:37;6.03;;;2.65;;
72974;SDS011;61166;54.228;37.632;2022-09-20T02:14:31;4.73;;;2.47;;
72974;SDS011;61166;54.228;37.632;2022-09-20T02:20:12;6.47;;;2.90;;
72974;SDS011;61166;54.228;37.632;2022-09-20T02:36:36;7.53;;;3.50;;
72974;SDS011;61166;54.228;37.632;2022-09-20T02:39:31;5.35;;;3.50;;
72974;SDS011;61166;54.228;37.632;2022-09-20T02:42:16;5.70;;;3.30;;
72974;SDS011;61166;54.228;37.632;2022-09-20T02:45:22;6.15;;;3.60;;
72974;SDS011;61166;54.228;37.632;2022-09-20T02:47:55;12.47;;;4.20;;
72974;SDS011;61166;54.228;37.632;2022-09-20T02:50:39;7.22;;;3.85;;
72974;SDS011;61166;54.228;37.632;2022-09-20T02:58:41;8.02;;;4.00;;
72974;SDS011;61166;54.228;37.632;2022-09-20T03:01:31;7.07;;;4.40;;
72974;SDS011;61166;54.228;37.632;2022-09-20T03:10:04;7.13;;;4.38;;
72974;SDS011;61166;54.228;37.632;2022-09-20T03:12:44;8.02;;;4.05;;
72974;SDS011;61166;54.228;37.632;2022-09-20T03:15:26;7.50;;;3.78;;
72974;SDS011;61166;54.228;37.632;2022-09-20T03:18:13;7.47;;;3.40;;
72974;SDS011;61166;54.228;37.632;2022-09-20T03:20:42;5.57;;;3.67;;
72974;SDS011;61166;54.228;37.632;2022-09-20T03:26:36;6.80;;;3.90;;
72974;SDS011;61166;54.228;37.632;2022-09-20T03:29:28;6.23;;;4.10;;
72974;SDS011;61166;54.228;37.632;2022-09-20T03:32:04;7.88;;;3.67;;
72974;SDS011;61166;54.228;37.632;2022-09-20T03:42:48;7.07;;;6.37;;
72974;SDS011;61166;54.228;37.632;2022-09-20T03:48:04;4.72;;;3.50;;
72974;SDS011;61166;54.228;37.632;2022-09-20T04:03:12;10.75;;;9.95;;
72974;SDS011;61166;54.228;37.632;2022-09-20T04:06:05;11.07;;;10.13;;
72974;SDS011;61166;54.228;37.632;2022-09-20T04:26:01;12.20;;;11.30;;
72974;SDS011;61166;54.228;37.632;2022-09-20T04:28:39;12.48;;;11.57;;
72974;SDS011;61166;54.228;37.632;2022-09-20T04:31:58;14.05;;;13.15;;
72974;SDS011;61166;54.228;37.632;2022-09-20T04:34:21;14.77;;;13.75;;
72974;SDS011;61166;54.228;37.632;2022-09-20T04:37:20;15.85;;;14.85;;
72974;SDS011;61166;54.228;37.632;2022-09-20T05:16:20;6.90;;;3.97;;
72974;SDS011;61166;54.228;37.632;2022-09-20T05:29:40;5.50;;;3.15;;
72974;SDS011;61166;54.228;37.632;2022-09-20T05:42:43;5.15;;;3.30;;
72974;SDS011;61166;54.228;37.632;2022-09-20T05:45:25;5.55;;;3.78;;
72974;SDS011;61166;54.228;37.632;2022-09-20T05:48:25;6.47;;;3.70;;
72974;SDS011;61166;54.228;37.632;2022-09-20T05:50:58;4.80;;;2.97;;
72974;SDS011;61166;54.228;37.632;2022-09-20T05:53:52;6.80;;;3.30;;
72974;SDS011;61166;54.228;37.632;2022-09-20T05:56:51;5.93;;;3.45;;
72974;SDS011;61166;54.228;37.632;2022-09-20T06:02:13;6.13;;;3.67;;
72974;SDS011;61166;54.228;37.632;2022-09-20T06:05:14;5.00;;;3.53;;
72974;SDS011;61166;54.228;37.632;2022-09-20T06:15:59;7.87;;;3.47;;
72974;SDS011;61166;54.228;37.632;2022-09-20T06:19:14;5.85;;;3.80;;
72974;SDS011;61166;54.228;37.632;2022-09-20T06:21:27;6.63;;;3.72;;
72974;SDS011;61166;54.228;37.632;2022-09-20T06:24:00;6.05;;;3.00;;
72974;SDS011;61166;54.228;37.632;2022-09-20T06:26:28;6.18;;;4.07;;
72974;SDS011;61166;54.228;37.632;2022-09-20T06:28:59;4.90;;;4.40;;
72974;SDS011;61166;54.228;37.632;2022-09-20T06:31:28;4.95;;;3.80;;
72974;SDS011;61166;54.228;37.632;2022-09-20T06:33:57;6.27;;;3.43;;
72974;SDS011;61166;54.228;37.632;2022-09-20T06:36:28;5.85;;;3.97;;
72974;SDS011;61166;54.228;37.632;2022-09-20T06:42:41;4.60;;;3.88;;
72974;SDS011;61166;54.228;37.632;2022-09-20T06:45:08;7.15;;;4.43;;
72974;SDS011;61166;54.228;37.632;2022-09-20T06:47:33;4.90;;;3.43;;
72974;SDS011;61166;54.228;37.632;2022-09-20T06:49:59;6.83;;;3.80;;
72974;SDS011;61166;54.228;37.632;2022-09-20T06:52:24;6.30;;;3.77;;
72974;SDS011;61166;54.228;37.632;2022-09-20T06:54:50;4.93;;;3.70;;
72974;SDS011;61166;54.228;37.632;2022-09-20T06:57:21;5.18;;;4.38;;
72974;SDS011;61166;54.228;37.632;2022-09-20T06:59:52;9.75;;;6.47;;
72974;SDS011;61166;54.228;37.632;2022-09-20T07:02:17;6.70;;;4.17;;
72974;SDS011;61166;54.228;37.632;2022-09-20T07:04:43;8.67;;;6.43;;
72974;SDS011;61166;54.228;37.632;2022-09-20T07:07:12;7.43;;;6.68;;
72974;SDS011;61166;54.228;37.632;2022-09-20T07:09:41;4.90;;;3.65;;
72974;SDS011;61166;54.228;37.632;2022-09-20T07:12:07;5.87;;;4.50;;
72974;SDS011;61166;54.228;37.632;2022-09-20T07:14:34;5.97;;;3.90;;
72974;SDS011;61166;54.228;37.632;2022-09-20T07:17:00;4.73;;;3.80;;
72974;SDS011;61166;54.228;37.632;2022-09-20T07:19:25;7.30;;;6.67;;
72974;SDS011;61166;54.228;37.632;2022-09-20T07:21:50;4.60;;;4.00;;
72974;SDS011;61166;54.228;37.632;2022-09-20T07:24:16;5.10;;;3.37;;
72974;SDS011;61166;54.228;37.632;2022-09-20T07:26:53;6.47;;;3.97;;
72974;SDS011;61166;54.228;37.632;2022-09-20T07:29:19;6.50;;;3.90;;
72974;SDS011;61166;54.228;37.632;2022-09-20T07:31:45;6.60;;;3.80;;
72974;SDS011;61166;54.228;37.632;2022-09-20T07:34:10;5.83;;;4.30;;
72974;SDS011;61166;54.228;37.632;2022-09-20T07:36:36;7.43;;;3.60;;
72974;SDS011;61166;54.228;37.632;2022-09-20T07:39:02;4.90;;;3.65;;
72974;SDS011;61166;54.228;37.632;2022-09-20T07:41:27;4.70;;;3.90;;
72974;SDS011;61166;54.228;37.632;2022-09-20T07:43:55;6.88;;;3.90;;
72974;SDS011;61166;54.228;37.632;2022-09-20T07:46:41;7.28;;;3.58;;
72974;SDS011;61166;54.228;37.632;2022-09-20T07:49:07;5.47;;;5.00;;
72974;SDS011;61166;54.228;37.632;2022-09-20T07:51:32;4.50;;;4.10;;
72974;SDS011;61166;54.228;37.632;2022-09-20T07:53:58;5.67;;;3.77;;
72974;SDS011;61166;54.228;37.632;2022-09-20T07:56:23;9.70;;;5.03;;
72974;SDS011;61166;54.228;37.632;2022-09-20T07:58:48;8.73;;;3.63;;
72974;SDS011;61166;54.228;37.632;2022-09-20T08:01:15;4.70;;;4.03;;
72974;SDS011;61166;54.228;37.632;2022-09-20T08:03:40;6.07;;;3.73;;
72974;SDS011;61166;54.228;37.632;2022-09-20T08:06:07;8.93;;;3.78;;
72974;SDS011;61166;54.228;37.632;2022-09-20T08:08:35;4.55;;;3.50;;
72974;SDS011;61166;54.228;37.632;2022-09-20T08:11:03;6.72;;;3.00;;
72974;SDS011;61166;54.228;37.632;2022-09-20T08:13:41;8.07;;;3.40;;
72974;SDS011;61166;54.228;37.632;2022-09-20T08:16:11;7.03;;;3.30;;
72974;SDS011;61166;54.228;37.632;2022-09-20T08:18:38;4.25;;;3.35;;
72974;SDS011;61166;54.228;37.632;2022-09-20T08:21:04;11.68;;;3.95;;
72974;SDS011;61166;54.228;37.632;2022-09-20T08:23:37;4.75;;;3.38;;
72974;SDS011;61166;54.228;37.632;2022-09-20T08:26:05;4.27;;;3.40;;
72974;SDS011;61166;54.228;37.632;2022-09-20T08:28:32;7.13;;;3.15;;
72974;SDS011;61166;54.228;37.632;2022-09-20T08:31:02;4.78;;;2.85;;
72974;SDS011;61166;54.228;37.632;2022-09-20T08:33:31;5.40;;;3.15;;
72974;SDS011;61166;54.228;37.632;2022-09-20T08:35:57;6.57;;;3.40;;
72974;SDS011;61166;54.228;37.632;2022-09-20T08:38:23;4.68;;;3.17;;
72974;SDS011;61166;54.228;37.632;2022-09-20T08:40:53;5.10;;;2.90;;
72974;SDS011;61166;54.228;37.632;2022-09-20T08:43:22;4.95;;;3.10;;
72974;SDS011;61166;54.228;37.632;2022-09-20T08:45:53;3.67;;;2.65;;
72974;SDS011;61166;54.228;37.632;2022-09-20T08:48:31;4.65;;;2.78;;
72974;SDS011;61166;54.228;37.632;2022-09-20T08:51:00;5.53;;;2.90;;
72974;SDS011;61166;54.228;37.632;2022-09-20T08:53:27;4.97;;;3.00;;
72974;SDS011;61166;54.228;37.632;2022-09-20T08:55:55;6.15;;;3.25;;
72974;SDS011;61166;54.228;37.632;2022-09-20T08:58:26;11.32;;;5.18;;
72974;SDS011;61166;54.228;37.632;2022-09-20T09:00:52;5.63;;;3.05;;
72974;SDS011;61166;54.228;37.632;2022-09-20T09:03:22;6.07;;;2.85;;
72974;SDS011;61166;54.228;37.632;2022-09-20T09:05:52;6.80;;;2.80;;
72974;SDS011;61166;54.228;37.632;2022-09-20T09:08:19;5.68;;;2.55;;
72974;SDS011;61166;54.228;37.632;2022-09-20T09:10:51;5.50;;;2.80;;
72974;SDS011;61166;54.228;37.632;2022-09-20T09:13:31;5.53;;;2.40;;
72974;SDS011;61166;54.228;37.632;2022-09-20T09:15:59;5.40;;;4.70;;
72974;SDS011;61166;54.228;37.632;2022-09-20T09:18:31;6.00;;;3.77;;
72974;SDS011;61166;54.228;37.632;2022-09-20T09:20:59;5.22;;;2.72;;
72974;SDS011;61166;54.228;37.632;2022-09-20T09:23:29;6.47;;;2.40;;
72974;SDS011;61166;54.228;37.632;2022-09-20T09:26:02;3.75;;;3.05;;
72974;SDS011;61166;54.228;37.632;2022-09-20T09:28:29;4.38;;;2.95;;
72974;SDS011;61166;54.228;37.632;2022-09-20T09:31:11;5.87;;;2.43;;
72974;SDS011;61166;54.228;37.632;2022-09-20T09:34:04;5.60;;;3.15;;
72974;SDS011;61166;54.228;37.632;2022-09-20T09:36:46;4.18;;;2.70;;
72974;SDS011;61166;54.228;37.632;2022-09-20T09:39:16;4.83;;;3.00;;
72974;SDS011;61166;54.228;37.632;2022-09-20T09:41:53;6.55;;;4.10;;
72974;SDS011;61166;54.228;37.632;2022-09-20T09:44:26;4.68;;;2.60;;
72974;SDS011;61166;54.228;37.632;2022-09-20T09:46:54;3.80;;;2.33;;
72974;SDS011;61166;54.228;37.632;2022-09-20T09:49:24;4.63;;;2.55;;
72974;SDS011;61166;54.228;37.632;2022-09-20T09:52:05;2.87;;;2.13;;
72974;SDS011;61166;54.228;37.632;2022-09-20T09:54:48;4.00;;;2.30;;
72974;SDS011;61166;54.228;37.632;2022-09-20T09:59:59;3.47;;;2.40;;
72974;SDS011;61166;54.228;37.632;2022-09-20T10:22:25;4.63;;;2.55;;
72974;SDS011;61166;54.228;37.632;2022-09-20T10:30:55;3.17;;;2.20;;
72974;SDS011;61166;54.228;37.632;2022-09-20T10:36:18;4.22;;;2.75;;
72974;SDS011;61166;54.228;37.632;2022-09-20T10:42:17;3.33;;;1.98;;
72974;SDS011;61166;54.228;37.632;2022-09-20T10:47:18;6.27;;;2.90;;
72974;SDS011;61166;54.228;37.632;2022-09-20T10:50:50;3.38;;;2.40;;
72974;SDS011;61166;54.228;37.632;2022-09-20T11:01:24;5.30;;;2.30;;
72974;SDS011;61166;54.228;37.632;2022-09-20T11:06:31;4.63;;;2.60;;
72974;SDS011;61166;54.228;37.632;2022-09-20T11:09:19;9.82;;;3.20;;
72974;SDS011;61166;54.228;37.632;2022-09-20T11:11:53;6.55;;;2.47;;
72974;SDS011;61166;54.228;37.632;2022-09-20T11:14:30;4.07;;;2.10;;
72974;SDS011;61166;54.228;37.632;2022-09-20T11:17:48;4.30;;;1.98;;
72974;SDS011;61166;54.228;37.632;2022-09-20T11:19:54;4.32;;;2.42;;
72974;SDS011;61166;54.228;37.632;2022-09-20T11:22:30;4.05;;;2.25;;
72974;SDS011;61166;54.228;37.632;2022-09-20T11:27:45;4.50;;;2.40;;
72974;SDS011;61166;54.228;37.632;2022-09-20T11:37:40;6.65;;;2.72;;
72974;SDS011;61166;54.228;37.632;2022-09-20T11:43:21;5.68;;;2.65;;
72974;SDS011;61166;54.228;37.632;2022-09-20T11:45:54;7.47;;;2.38;;
72974;SDS011;61166;54.228;37.632;2022-09-20T11:48:25;6.18;;;2.10;;
72974;SDS011;61166;54.228;37.632;2022-09-20T11:51:03;5.18;;;2.30;;
72974;SDS011;61166;54.228;37.632;2022-09-20T11:56:47;3.45;;;2.15;;
72974;SDS011;61166;54.228;37.632;2022-09-20T12:02:15;5.10;;;2.45;;
72974;SDS011;61166;54.228;37.632;2022-09-20T12:04:47;6.15;;;2.50;;
72974;SDS011;61166;54.228;37.632;2022-09-20T12:09:43;3.63;;;2.00;;
72974;SDS011;61166;54.228;37.632;2022-09-20T12:12:23;3.75;;;2.45;;
72974;SDS011;61166;54.228;37.632;2022-09-20T12:14:55;7.55;;;2.30;;
72974;SDS011;61166;54.228;37.632;2022-09-20T12:33:54;3.58;;;2.13;;
72974;SDS011;61166;54.228;37.632;2022-09-20T12:36:23;4.05;;;2.22;;
72974;SDS011;61166;54.228;37.632;2022-09-20T12:38:51;4.38;;;2.22;;
72974;SDS011;61166;54.228;37.632;2022-09-20T12:49:38;4.93;;;3.10;;
72974;SDS011;61166;54.228;37.632;2022-09-20T13:05:48;5.20;;;2.60;;
72974;SDS011;61166;54.228;37.632;2022-09-20T13:21:35;4.30;;;2.42;;
72974;SDS011;61166;54.228;37.632;2022-09-20T13:24:04;5.60;;;2.27;;
72974;SDS011;61166;54.228;37.632;2022-09-20T13:26:32;3.72;;;2.00;;
72974;SDS011;61166;54.228;37.632;2022-09-20T13:29:03;4.53;;;2.13;;
72974;SDS011;61166;54.228;37.632;2022-09-20T13:31:34;6.78;;;2.50;;
72974;SDS011;61166;54.228;37.632;2022-09-20T13:34:19;8.57;;;2.07;;
72974;SDS011;61166;54.228;37.632;2022-09-20T13:36:51;4.60;;;1.90;;
72974;SDS011;61166;54.228;37.632;2022-09-20T13:39:23;4.88;;;2.30;;
72974;SDS011;61166;54.228;37.632;2022-09-20T13:42:06;4.68;;;2.35;;
72974;SDS011;61166;54.228;37.632;2022-09-20T13:44:36;6.13;;;2.78;;
72974;SDS011;61166;54.228;37.632;2022-09-20T13:47:18;4.45;;;2.33;;
72974;SDS011;61166;54.228;37.632;2022-09-20T13:49:46;7.30;;;3.07;;
72974;SDS011;61166;54.228;37.632;2022-09-20T13:52:17;4.82;;;2.70;;
72974;SDS011;61166;54.228;37.632;2022-09-20T13:54:47;4.15;;;2.63;;
72974;SDS011;61166;54.228;37.632;2022-09-20T13:57:14;5.53;;;2.63;;
72974;SDS011;61166;54.228;37.632;2022-09-20T13:59:53;5.53;;;2.72;;
72974;SDS011;61166;54.228;37.632;2022-09-20T14:02:26;5.33;;;2.77;;
72974;SDS011;61166;54.228;37.632;2022-09-20T14:04:53;6.97;;;2.22;;
72974;SDS011;61166;54.228;37.632;2022-09-20T14:07:20;4.05;;;2.22;;
72974;SDS011;61166;54.228;37.632;2022-09-20T14:09:50;6.03;;;2.45;;
72974;SDS011;61166;54.228;37.632;2022-09-20T14:12:16;3.75;;;2.35;;
72974;SDS011;61166;54.228;37.632;2022-09-20T14:14:42;3.60;;;2.30;;
72974;SDS011;61166;54.228;37.632;2022-09-20T14:17:08;4.10;;;2.40;;
72974;SDS011;61166;54.228;37.632;2022-09-20T14:19:39;5.10;;;2.22;;
72974;SDS011;61166;54.228;37.632;2022-09-20T14:22:06;5.00;;;2.80;;
72974;SDS011;61166;54.228;37.632;2022-09-20T14:24:36;5.68;;;2.33;;
72974;SDS011;61166;54.228;37.632;2022-09-20T14:27:03;4.43;;;2.57;;
72974;SDS011;61166;54.228;37.632;2022-09-20T14:29:46;4.57;;;2.35;;
72974;SDS011;61166;54.228;37.632;2022-09-20T14:37:24;4.15;;;1.63;;
72974;SDS011;61166;54.228;37.632;2022-09-20T14:42:45;6.22;;;2.20;;
72974;SDS011;61166;54.228;37.632;2022-09-20T14:45:19;18.98;;;4.95;;
72974;SDS011;61166;54.228;37.632;2022-09-20T14:50:30;11.40;;;3.30;;
72974;SDS011;61166;54.228;37.632;2022-09-20T14:58:31;7.35;;;2.90;;
72974;SDS011;61166;54.228;37.632;2022-09-20T15:01:01;14.40;;;3.35;;
72974;SDS011;61166;54.228;37.632;2022-09-20T15:03:38;7.10;;;2.75;;
72974;SDS011;61166;54.228;37.632;2022-09-20T15:06:05;15.77;;;3.70;;
72974;SDS011;61166;54.228;37.632;2022-09-20T15:08:33;20.27;;;5.50;;
72974;SDS011;61166;54.228;37.632;2022-09-20T15:11:00;13.02;;;3.45;;
72974;SDS011;61166;54.228;37.632;2022-09-20T15:13:26;11.95;;;3.60;;
72974;SDS011;61166;54.228;37.632;2022-09-20T15:15:52;10.17;;;3.00;;
72974;SDS011;61166;54.228;37.632;2022-09-20T15:18:19;15.27;;;3.60;;
72974;SDS011;61166;54.228;37.632;2022-09-20T15:20:47;7.20;;;2.63;;
72974;SDS011;61166;54.228;37.632;2022-09-20T15:23:13;8.77;;;3.00;;
72974;SDS011;61166;54.228;37.632;2022-09-20T15:25:39;5.83;;;3.20;;
72974;SDS011;61166;54.228;37.632;2022-09-20T15:28:04;8.52;;;3.33;;
72974;SDS011;61166;54.228;37.632;2022-09-20T15:30:31;9.33;;;3.43;;
72974;SDS011;61166;54.228;37.632;2022-09-20T15:32:57;8.23;;;3.63;;
72974;SDS011;61166;54.228;37.632;2022-09-20T15:35:22;11.87;;;3.73;;
72974;SDS011;61166;54.228;37.632;2022-09-20T15:37:47;17.47;;;4.63;;
72974;SDS011;61166;54.228;37.632;2022-09-20T15:40:13;10.43;;;4.57;;
72974;SDS011;61166;54.228;37.632;2022-09-20T15:42:39;9.70;;;3.92;;
72974;SDS011;61166;54.228;37.632;2022-09-20T15:45:08;9.02;;;4.00;;
72974;SDS011;61166;54.228;37.632;2022-09-20T15:47:36;12.18;;;4.45;;
72974;SDS011;61166;54.228;37.632;2022-09-20T15:50:06;10.33;;;4.47;;
72974;SDS011;61166;54.228;37.632;2022-09-20T15:52:33;8.10;;;4.43;;
72974;SDS011;61166;54.228;37.632;2022-09-20T15:55:05;11.23;;;5.07;;
72974;SDS011;61166;54.228;37.632;2022-09-20T15:57:32;10.43;;;4.68;;
72974;SDS011;61166;54.228;37.632;2022-09-20T15:59:58;11.90;;;4.65;;
72974;SDS011;61166;54.228;37.632;2022-09-20T16:02:23;10.83;;;5.00;;
72974;SDS011;61166;54.228;37.632;2022-09-20T16:04:49;8.07;;;4.47;;
72974;SDS011;61166;54.228;37.632;2022-09-20T16:07:18;10.60;;;5.22;;
72974;SDS011;61166;54.228;37.632;2022-09-20T16:09:46;12.05;;;5.32;;
72974;SDS011;61166;54.228;37.632;2022-09-20T16:12:11;14.53;;;5.73;;
72974;SDS011;61166;54.228;37.632;2022-09-20T16:14:37;24.67;;;12.17;;
72974;SDS011;61166;54.228;37.632;2022-09-20T16:17:02;25.53;;;13.97;;
72974;SDS011;61166;54.228;37.632;2022-09-20T16:19:27;107.57;;;55.90;;
72974;SDS011;61166;54.228;37.632;2022-09-20T16:21:55;53.78;;;27.48;;
72974;SDS011;61166;54.228;37.632;2022-09-20T16:24:21;45.67;;;25.43;;
72974;SDS011;61166;54.228;37.632;2022-09-20T16:26:51;60.05;;;32.45;;
72974;SDS011;61166;54.228;37.632;2022-09-20T16:29:17;78.50;;;40.90;;
72974;SDS011;61166;54.228;37.632;2022-09-20T16:31:43;39.47;;;19.77;;
72974;SDS011;61166;54.228;37.632;2022-09-20T16:34:14;27.52;;;15.40;;
72974;SDS011;61166;54.228;37.632;2022-09-20T16:36:44;28.65;;;13.35;;
72974;SDS011;61166;54.228;37.632;2022-09-20T16:39:15;26.02;;;13.30;;
72974;SDS011;61166;54.228;37.632;2022-09-20T16:41:42;20.43;;;7.70;;
72974;SDS011;61166;54.228;37.632;2022-09-20T16:44:10;16.60;;;8.93;;
72974;SDS011;61166;54.228;37.632;2022-09-20T16:46:37;15.98;;;8.00;;
72974;SDS011;61166;54.228;37.632;2022-09-20T16:49:03;20.53;;;10.47;;
72974;SDS011;61166;54.228;37.632;2022-09-20T16:51:31;18.90;;;9.43;;
72974;SDS011;61166;54.228;37.632;2022-09-20T16:54:02;15.88;;;7.60;;
72974;SDS011;61166;54.228;37.632;2022-09-20T16:56:30;20.58;;;10.25;;
72974;SDS011;61166;54.228;37.632;2022-09-20T16:59:02;27.13;;;14.40;;
72974;SDS011;61166;54.228;37.632;2022-09-20T17:01:29;52.00;;;24.35;;
72974;SDS011;61166;54.228;37.632;2022-09-20T17:03:55;54.05;;;25.45;;
72974;SDS011;61166;54.228;37.632;2022-09-20T17:06:21;41.88;;;20.35;;
72974;SDS011;61166;54.228;37.632;2022-09-20T17:08:50;37.27;;;19.40;;
72974;SDS011;61166;54.228;37.632;2022-09-20T17:11:17;47.05;;;23.20;;
72974;SDS011;61166;54.228;37.632;2022-09-20T17:13:46;43.58;;;21.17;;
72974;SDS011;61166;54.228;37.632;2022-09-20T17:16:15;42.58;;;20.95;;
72974;SDS011;61166;54.228;37.632;2022-09-20T17:18:43;48.08;;;21.85;;
72974;SDS011;61166;54.228;37.632;2022-09-20T17:21:12;36.33;;;17.97;;
72974;SDS011;61166;54.228;37.632;2022-09-20T17:23:40;41.58;;;22.65;;
72974;SDS011;61166;54.228;37.632;2022-09-20T17:26:15;45.43;;;23.40;;
72974;SDS011;61166;54.228;37.632;2022-09-20T17:28:47;43.13;;;21.38;;
72974;SDS011;61166;54.228;37.632;2022-09-20T17:31:21;42.35;;;21.98;;
72974;SDS011;61166;54.228;37.632;2022-09-20T17:33:49;17.40;;;8.15;;
72974;SDS011;61166;54.228;37.632;2022-09-20T17:36:16;20.83;;;10.68;;
72974;SDS011;61166;54.228;37.632;2022-09-20T17:38:43;24.17;;;7.20;;
72974;SDS011;61166;54.228;37.632;2022-09-20T17:41:11;14.25;;;7.15;;
72974;SDS011;61166;54.228;37.632;2022-09-20T17:43:39;19.30;;;10.02;;
72974;SDS011;61166;54.228;37.632;2022-09-20T17:46:07;26.88;;;12.05;;
72974;SDS011;61166;54.228;37.632;2022-09-20T17:48:35;27.65;;;12.73;;
72974;SDS011;61166;54.228;37.632;2022-09-20T17:51:00;25.63;;;13.30;;
72974;SDS011;61166;54.228;37.632;2022-09-20T17:53:28;31.13;;;16.70;;
72974;SDS011;61166;54.228;37.632;2022-09-20T17:55:54;28.33;;;15.23;;
72974;SDS011;61166;54.228;37.632;2022-09-20T17:58:21;25.98;;;14.27;;
72974;SDS011;61166;54.228;37.632;2022-09-20T18:00:46;33.28;;;15.70;;
72974;SDS011;61166;54.228;37.632;2022-09-20T18:03:12;34.20;;;16.27;;
72974;SDS011;61166;54.228;37.632;2022-09-20T18:05:38;30.50;;;16.75;;
72974;SDS011;61166;54.228;37.632;2022-09-20T18:08:03;27.93;;;15.27;;
72974;SDS011;61166;54.228;37.632;2022-09-20T18:10:29;36.30;;;18.53;;
72974;SDS011;61166;54.228;37.632;2022-09-20T18:12:54;30.25;;;16.90;;
72974;SDS011;61166;54.228;37.632;2022-09-20T18:15:19;33.13;;;18.07;;
72974;SDS011;61166;54.228;37.632;2022-09-20T18:17:45;31.33;;;15.53;;
72974;SDS011;61166;54.228;37.632;2022-09-20T18:20:10;18.07;;;9.37;;
72974;SDS011;61166;54.228;37.632;2022-09-20T18:22:36;15.83;;;7.60;;
72974;SDS011;61166;54.228;37.632;2022-09-20T18:25:02;12.95;;;6.45;;
72974;SDS011;61166;54.228;37.632;2022-09-20T18:27:28;13.53;;;5.93;;
72974;SDS011;61166;54.228;37.632;2022-09-20T18:29:54;15.50;;;7.72;;
72974;SDS011;61166;54.228;37.632;2022-09-20T18:32:20;19.85;;;10.45;;
72974;SDS011;61166;54.228;37.632;2022-09-20T18:34:45;20.63;;;10.70;;
72974;SDS011;61166;54.228;37.632;2022-09-20T18:37:15;23.98;;;12.57;;
72974;SDS011;61166;54.228;37.632;2022-09-20T18:39:41;25.03;;;13.17;;
72974;SDS011;61166;54.228;37.632;2022-09-20T18:42:07;24.23;;;12.27;;
72974;SDS011;61166;54.228;37.632;2022-09-20T18:44:33;21.35;;;10.13;;
72974;SDS011;61166;54.228;37.632;2022-09-20T18:46:59;19.38;;;10.20;;
72974;SDS011;61166;54.228;37.632;2022-09-20T18:49:26;17.40;;;9.70;;
72974;SDS011;61166;54.228;37.632;2022-09-20T18:51:53;20.95;;;9.88;;
72974;SDS011;61166;54.228;37.632;2022-09-20T18:54:18;21.93;;;10.20;;
72974;SDS011;61166;54.228;37.632;2022-09-20T18:56:44;25.23;;;11.60;;
72974;SDS011;61166;54.228;37.632;2022-09-20T18:59:15;21.33;;;9.57;;
72974;SDS011;61166;54.228;37.632;2022-09-20T19:17:39;19.55;;;8.63;;
72974;SDS011;61166;54.228;37.632;2022-09-20T19:28:50;21.17;;;9.50;;
72974;SDS011;61166;54.228;37.632;2022-09-20T19:31:24;21.58;;;9.95;;
72974;SDS011;61166;54.228;37.632;2022-09-20T19:33:55;19.42;;;10.00;;
72974;SDS011;61166;54.228;37.632;2022-09-20T19:36:46;22.23;;;11.03;;
72974;SDS011;61166;54.228;37.632;2022-09-20T19:50:21;12.43;;;7.43;;
72974;SDS011;61166;54.228;37.632;2022-09-20T19:52:57;12.85;;;7.28;;
72974;SDS011;61166;54.228;37.632;2022-09-20T19:55:25;10.57;;;5.13;;
72974;SDS011;61166;54.228;37.632;2022-09-20T19:57:51;11.03;;;5.50;;
72974;SDS011;61166;54.228;37.632;2022-09-20T20:00:18;15.88;;;6.60;;
72974;SDS011;61166;54.228;37.632;2022-09-20T20:02:45;17.25;;;6.32;;
72974;SDS011;61166;54.228;37.632;2022-09-20T20:05:15;14.43;;;6.72;;
72974;SDS011;61166;54.228;37.632;2022-09-20T20:15:56;17.98;;;9.20;;
72974;SDS011;61166;54.228;37.632;2022-09-20T20:18:54;17.80;;;9.38;;
72974;SDS011;61166;54.228;37.632;2022-09-20T20:26:49;18.02;;;9.98;;
72974;SDS011;61166;54.228;37.632;2022-09-20T20:29:15;13.17;;;7.57;;
72974;SDS011;61166;54.228;37.632;2022-09-20T20:31:40;15.60;;;8.25;;
72974;SDS011;61166;54.228;37.632;2022-09-20T20:34:06;12.47;;;6.83;;
72974;SDS011;61166;54.228;37.632;2022-09-20T20:36:32;15.07;;;7.75;;
72974;SDS011;61166;54.228;37.632;2022-09-20T20:38:58;18.50;;;9.13;;
72974;SDS011;61166;54.228;37.632;2022-09-20T20:41:23;16.40;;;8.53;;
72974;SDS011;61166;54.228;37.632;2022-09-20T20:43:52;13.43;;;7.25;;
72974;SDS011;61166;54.228;37.632;2022-09-20T20:46:20;12.45;;;7.60;;
72974;SDS011;61166;54.228;37.632;2022-09-20T20:48:46;15.27;;;7.38;;
72974;SDS011;61166;54.228;37.632;2022-09-20T20:51:12;16.77;;;8.55;;
72974;SDS011;61166;54.228;37.632;2022-09-20T20:53:41;17.40;;;8.65;;
72974;SDS011;61166;54.228;37.632;2022-09-20T20:56:16;19.75;;;10.25;;